23°C Temp
22°C Dewpoint
94% Humidity
Temperature
19 KM/H
12 MPH
10 KTS
340°
North North
West

Wind Speed
Light Rain
Showers
Pressure 1007.92 (hPa) - 29.76 (in)
Visibility 5.6 (mi) - 9.0 (km)

Current Conditions
YBBN
Location 16(km)
Metar :YBBN 251830Z 34010KT 9000 -RA FEW009 SCT020 BKN100 23/22 Q1008
Fri 26th November 04:30 am

Airport
  Metar Aviation API Data Provided by https://www.checkwx.com/ PHP scripts by weather34.com ©2021